sensor_id;sensor_type;location;lat;lon;timestamp;pressure;altitude;pressure_sealevel;temperature;humidity
82006;BME280;71529;47.484;19.064;2023-08-06T00:02:15;99052.53;;;21.18;85.24
82006;BME280;71529;47.484;19.064;2023-08-06T00:04:43;99052.66;;;21.23;85.31
82006;BME280;71529;47.484;19.064;2023-08-06T00:07:11;99056.91;;;21.19;85.50
82006;BME280;71529;47.484;19.064;2023-08-06T00:09:41;99051.72;;;21.18;85.76
82006;BME280;71529;47.484;19.064;2023-08-06T00:12:09;99060.56;;;21.25;85.03
82006;BME280;71529;47.484;19.064;2023-08-06T00:14:37;99068.59;;;21.20;85.79
82006;BME280;71529;47.484;19.064;2023-08-06T00:17:05;99069.88;;;21.17;85.71
82006;BME280;71529;47.484;19.064;2023-08-06T00:19:33;99072.59;;;21.17;85.54
82006;BME280;71529;47.484;19.064;2023-08-06T00:22:01;99078.38;;;21.09;85.63
82006;BME280;71529;47.484;19.064;2023-08-06T00:24:29;99080.06;;;21.22;84.68
82006;BME280;71529;47.484;19.064;2023-08-06T00:26:59;99078.88;;;21.18;84.53
82006;BME280;71529;47.484;19.064;2023-08-06T00:29:27;99076.88;;;21.13;85.01
82006;BME280;71529;47.484;19.064;2023-08-06T00:31:55;99069.53;;;21.02;85.50
82006;BME280;71529;47.484;19.064;2023-08-06T00:34:23;99065.97;;;21.02;85.64
82006;BME280;71529;47.484;19.064;2023-08-06T00:36:51;99069.16;;;20.99;84.96
82006;BME280;71529;47.484;19.064;2023-08-06T00:39:20;99053.56;;;20.94;85.49
82006;BME280;71529;47.484;19.064;2023-08-06T00:41:48;99030.16;;;20.93;85.83
82006;BME280;71529;47.484;19.064;2023-08-06T00:44:18;99020.72;;;20.96;85.59
82006;BME280;71529;47.484;19.064;2023-08-06T00:46:46;99024.13;;;20.91;85.25
82006;BME280;71529;47.484;19.064;2023-08-06T00:49:15;99026.03;;;20.90;84.58
82006;BME280;71529;47.484;19.064;2023-08-06T00:51:43;99019.78;;;20.90;85.03
82006;BME280;71529;47.484;19.064;2023-08-06T00:54:12;99024.59;;;20.88;84.76
82006;BME280;71529;47.484;19.064;2023-08-06T00:56:41;99014.66;;;20.82;85.35
82006;BME280;71529;47.484;19.064;2023-08-06T00:59:10;99012.09;;;20.87;85.35
82006;BME280;71529;47.484;19.064;2023-08-06T01:01:41;99014.00;;;20.86;85.51
82006;BME280;71529;47.484;19.064;2023-08-06T01:04:10;99007.59;;;20.92;85.21
82006;BME280;71529;47.484;19.064;2023-08-06T01:06:45;99003.72;;;20.88;85.51
82006;BME280;71529;47.484;19.064;2023-08-06T01:09:27;99007.16;;;20.96;85.29
82006;BME280;71529;47.484;19.064;2023-08-06T01:12:05;99004.09;;;20.92;85.24
82006;BME280;71529;47.484;19.064;2023-08-06T01:14:38;98999.94;;;20.89;85.45
82006;BME280;71529;47.484;19.064;2023-08-06T01:17:14;98999.34;;;20.87;85.88
82006;BME280;71529;47.484;19.064;2023-08-06T01:19:42;98990.16;;;20.88;85.13
82006;BME280;71529;47.484;19.064;2023-08-06T01:22:11;98985.75;;;20.76;86.35
82006;BME280;71529;47.484;19.064;2023-08-06T01:24:41;98981.63;;;20.73;86.49
82006;BME280;71529;47.484;19.064;2023-08-06T01:27:19;98981.53;;;20.80;86.00
82006;BME280;71529;47.484;19.064;2023-08-06T01:29:57;98980.22;;;20.71;86.78
82006;BME280;71529;47.484;19.064;2023-08-06T01:32:29;98984.69;;;20.77;86.41
82006;BME280;71529;47.484;19.064;2023-08-06T01:35:00;98986.47;;;20.83;86.45
82006;BME280;71529;47.484;19.064;2023-08-06T01:37:30;98976.56;;;20.77;86.54
82006;BME280;71529;47.484;19.064;2023-08-06T01:39:59;98977.16;;;20.79;86.40
82006;BME280;71529;47.484;19.064;2023-08-06T01:42:27;98977.38;;;20.77;86.42
82006;BME280;71529;47.484;19.064;2023-08-06T01:44:55;98976.78;;;20.75;86.48
82006;BME280;71529;47.484;19.064;2023-08-06T01:47:23;98964.66;;;20.78;86.54
82006;BME280;71529;47.484;19.064;2023-08-06T01:49:51;98965.25;;;20.80;86.53
82006;BME280;71529;47.484;19.064;2023-08-06T01:52:19;98965.38;;;20.85;85.74
82006;BME280;71529;47.484;19.064;2023-08-06T01:54:48;98958.03;;;20.85;85.24
82006;BME280;71529;47.484;19.064;2023-08-06T01:57:16;98952.59;;;20.85;85.24
82006;BME280;71529;47.484;19.064;2023-08-06T01:59:44;98942.81;;;20.73;85.66
82006;BME280;71529;47.484;19.064;2023-08-06T02:02:12;98938.06;;;20.68;86.33
82006;BME280;71529;47.484;19.064;2023-08-06T02:04:40;98928.06;;;20.69;85.90
82006;BME280;71529;47.484;19.064;2023-08-06T02:07:09;98929.34;;;20.66;86.22
82006;BME280;71529;47.484;19.064;2023-08-06T02:09:37;98923.31;;;20.64;85.88
82006;BME280;71529;47.484;19.064;2023-08-06T02:12:07;98919.44;;;20.60;86.12
82006;BME280;71529;47.484;19.064;2023-08-06T02:14:35;98919.06;;;20.68;86.06
82006;BME280;71529;47.484;19.064;2023-08-06T02:17:03;98916.84;;;20.65;86.23
82006;BME280;71529;47.484;19.064;2023-08-06T02:19:31;98917.53;;;20.61;86.58
82006;BME280;71529;47.484;19.064;2023-08-06T02:21:59;98900.44;;;20.60;86.15
82006;BME280;71529;47.484;19.064;2023-08-06T02:24:28;98902.69;;;20.63;86.40
82006;BME280;71529;47.484;19.064;2023-08-06T02:26:56;98898.88;;;20.64;85.95
82006;BME280;71529;47.484;19.064;2023-08-06T02:29:26;98901.72;;;20.58;86.35
82006;BME280;71529;47.484;19.064;2023-08-06T02:31:54;98896.91;;;20.60;86.45
82006;BME280;71529;47.484;19.064;2023-08-06T02:34:22;98896.06;;;20.59;86.06
82006;BME280;71529;47.484;19.064;2023-08-06T02:36:50;98887.69;;;20.61;86.33
82006;BME280;71529;47.484;19.064;2023-08-06T02:39:18;98886.75;;;20.55;85.56
82006;BME280;71529;47.484;19.064;2023-08-06T02:41:47;98884.97;;;20.61;85.19
82006;BME280;71529;47.484;19.064;2023-08-06T02:44:15;98890.75;;;20.64;84.46
82006;BME280;71529;47.484;19.064;2023-08-06T02:46:45;98899.59;;;20.48;85.77
82006;BME280;71529;47.484;19.064;2023-08-06T02:49:13;98901.97;;;20.45;86.08
82006;BME280;71529;47.484;19.064;2023-08-06T02:51:41;98898.88;;;20.41;86.41
82006;BME280;71529;47.484;19.064;2023-08-06T02:54:09;98889.91;;;20.41;86.18
82006;BME280;71529;47.484;19.064;2023-08-06T02:56:37;98888.28;;;20.51;85.48
82006;BME280;71529;47.484;19.064;2023-08-06T02:59:06;98881.41;;;20.49;85.28
82006;BME280;71529;47.484;19.064;2023-08-06T03:01:34;98875.63;;;20.45;85.36
82006;BME280;71529;47.484;19.064;2023-08-06T03:04:04;98878.25;;;20.63;84.48
82006;BME280;71529;47.484;19.064;2023-08-06T03:06:32;98885.22;;;20.48;83.68
82006;BME280;71529;47.484;19.064;2023-08-06T03:09:00;98886.47;;;20.34;84.68
82006;BME280;71529;47.484;19.064;2023-08-06T03:11:28;98879.41;;;20.33;85.61
82006;BME280;71529;47.484;19.064;2023-08-06T03:13:56;98875.03;;;20.32;85.26
82006;BME280;71529;47.484;19.064;2023-08-06T03:16:25;98881.06;;;20.34;85.07
82006;BME280;71529;47.484;19.064;2023-08-06T03:18:53;98881.31;;;20.32;85.18
82006;BME280;71529;47.484;19.064;2023-08-06T03:21:22;98883.66;;;20.40;84.30
82006;BME280;71529;47.484;19.064;2023-08-06T03:23:50;98876.34;;;20.41;84.77
82006;BME280;71529;47.484;19.064;2023-08-06T03:26:18;98879.78;;;20.36;85.07
82006;BME280;71529;47.484;19.064;2023-08-06T03:28:46;98887.31;;;20.34;85.11
82006;BME280;71529;47.484;19.064;2023-08-06T03:31:14;98875.63;;;20.34;85.27
82006;BME280;71529;47.484;19.064;2023-08-06T03:33:43;98875.28;;;20.30;84.55
82006;BME280;71529;47.484;19.064;2023-08-06T03:36:11;98877.88;;;20.25;85.07
82006;BME280;71529;47.484;19.064;2023-08-06T03:38:40;98873.41;;;20.31;84.59
82006;BME280;71529;47.484;19.064;2023-08-06T03:41:08;98886.38;;;20.29;84.67
82006;BME280;71529;47.484;19.064;2023-08-06T03:43:36;98879.25;;;20.28;84.72
82006;BME280;71529;47.484;19.064;2023-08-06T03:46:04;98879.88;;;20.30;84.05
82006;BME280;71529;47.484;19.064;2023-08-06T03:48:32;98880.94;;;20.29;84.21
82006;BME280;71529;47.484;19.064;2023-08-06T03:51:00;98879.75;;;20.25;83.98
82006;BME280;71529;47.484;19.064;2023-08-06T03:53:29;98877.50;;;20.22;83.50
82006;BME280;71529;47.484;19.064;2023-08-06T03:55:58;98871.31;;;20.15;83.95
82006;BME280;71529;47.484;19.064;2023-08-06T03:58:27;98873.31;;;20.08;84.21
82006;BME280;71529;47.484;19.064;2023-08-06T04:00:59;98870.97;;;20.11;84.34
82006;BME280;71529;47.484;19.064;2023-08-06T04:03:28;98875.66;;;20.04;84.20
82006;BME280;71529;47.484;19.064;2023-08-06T04:05:56;98879.47;;;20.15;82.83
82006;BME280;71529;47.484;19.064;2023-08-06T04:08:24;98869.50;;;19.97;83.45
82006;BME280;71529;47.484;19.064;2023-08-06T04:10:52;98875.41;;;19.94;84.20
82006;BME280;71529;47.484;19.064;2023-08-06T04:13:22;98865.97;;;19.97;83.65
82006;BME280;71529;47.484;19.064;2023-08-06T04:15:50;98870.78;;;19.95;84.08
82006;BME280;71529;47.484;19.064;2023-08-06T04:18:18;98862.75;;;19.88;83.38
82006;BME280;71529;47.484;19.064;2023-08-06T04:20:47;98856.88;;;19.91;83.53
82006;BME280;71529;47.484;19.064;2023-08-06T04:23:16;98854.41;;;19.90;83.18
82006;BME280;71529;47.484;19.064;2023-08-06T04:25:44;98859.56;;;19.79;82.46
82006;BME280;71529;47.484;19.064;2023-08-06T04:28:12;98861.53;;;19.72;82.55
82006;BME280;71529;47.484;19.064;2023-08-06T04:30:41;98864.34;;;19.66;82.79
82006;BME280;71529;47.484;19.064;2023-08-06T04:33:09;98866.59;;;19.69;83.15
82006;BME280;71529;47.484;19.064;2023-08-06T04:35:37;98866.72;;;19.74;82.54
82006;BME280;71529;47.484;19.064;2023-08-06T04:38:05;98858.22;;;19.70;82.68
82006;BME280;71529;47.484;19.064;2023-08-06T04:40:33;98855.19;;;19.49;82.99
82006;BME280;71529;47.484;19.064;2023-08-06T04:43:01;98854.75;;;19.52;83.98
82006;BME280;71529;47.484;19.064;2023-08-06T04:45:30;98860.28;;;19.57;83.80
82006;BME280;71529;47.484;19.064;2023-08-06T04:47:59;98855.69;;;19.57;84.13
82006;BME280;71529;47.484;19.064;2023-08-06T04:50:27;98852.59;;;19.54;84.28
82006;BME280;71529;47.484;19.064;2023-08-06T04:52:55;98847.97;;;19.43;84.32
82006;BME280;71529;47.484;19.064;2023-08-06T04:55:23;98849.00;;;19.60;84.27
82006;BME280;71529;47.484;19.064;2023-08-06T04:57:51;98845.19;;;19.49;83.29
82006;BME280;71529;47.484;19.064;2023-08-06T05:00:20;98833.75;;;19.47;82.97
82006;BME280;71529;47.484;19.064;2023-08-06T05:02:48;98840.84;;;19.48;82.84
82006;BME280;71529;47.484;19.064;2023-08-06T05:05:17;98842.84;;;19.53;83.26
82006;BME280;71529;47.484;19.064;2023-08-06T05:07:48;98836.97;;;19.56;82.27
82006;BME280;71529;47.484;19.064;2023-08-06T05:10:17;98832.25;;;19.51;82.85
82006;BME280;71529;47.484;19.064;2023-08-06T05:12:45;98826.94;;;19.56;82.68
82006;BME280;71529;47.484;19.064;2023-08-06T05:15:13;98834.25;;;19.56;83.35
82006;BME280;71529;47.484;19.064;2023-08-06T05:17:41;98827.09;;;19.61;82.63
82006;BME280;71529;47.484;19.064;2023-08-06T05:20:10;98838.25;;;19.53;81.41
82006;BME280;71529;47.484;19.064;2023-08-06T05:22:40;98834.00;;;19.57;82.53
82006;BME280;71529;47.484;19.064;2023-08-06T05:25:08;98842.13;;;19.57;80.51
82006;BME280;71529;47.484;19.064;2023-08-06T05:27:36;98840.22;;;19.46;80.54
82006;BME280;71529;47.484;19.064;2023-08-06T05:30:05;98842.84;;;19.53;80.75
82006;BME280;71529;47.484;19.064;2023-08-06T05:32:34;98842.38;;;19.56;79.41
82006;BME280;71529;47.484;19.064;2023-08-06T05:35:02;98834.06;;;19.39;80.30
82006;BME280;71529;47.484;19.064;2023-08-06T05:37:30;98831.38;;;19.39;80.85
82006;BME280;71529;47.484;19.064;2023-08-06T05:39:59;98830.19;;;19.47;80.47
82006;BME280;71529;47.484;19.064;2023-08-06T05:42:28;98830.81;;;19.49;79.60
82006;BME280;71529;47.484;19.064;2023-08-06T05:44:56;98826.91;;;19.45;79.97
82006;BME280;71529;47.484;19.064;2023-08-06T05:47:24;98822.53;;;19.44;79.40
82006;BME280;71529;47.484;19.064;2023-08-06T05:49:52;98825.34;;;19.37;79.44
82006;BME280;71529;47.484;19.064;2023-08-06T05:52:20;98818.25;;;19.36;79.04
82006;BME280;71529;47.484;19.064;2023-08-06T05:54:48;98822.28;;;19.34;79.21
82006;BME280;71529;47.484;19.064;2023-08-06T05:57:18;98826.84;;;19.33;80.62
82006;BME280;71529;47.484;19.064;2023-08-06T05:59:46;98821.94;;;19.42;79.15
82006;BME280;71529;47.484;19.064;2023-08-06T06:02:14;98811.06;;;19.30;79.01
82006;BME280;71529;47.484;19.064;2023-08-06T06:04:42;98812.28;;;19.34;78.72
82006;BME280;71529;47.484;19.064;2023-08-06T06:07:11;98817.69;;;19.34;80.75
82006;BME280;71529;47.484;19.064;2023-08-06T06:09:39;98807.50;;;19.30;78.69
82006;BME280;71529;47.484;19.064;2023-08-06T06:12:07;98801.47;;;19.28;80.35
82006;BME280;71529;47.484;19.064;2023-08-06T06:14:36;98805.47;;;19.25;78.34
82006;BME280;71529;47.484;19.064;2023-08-06T06:17:04;98814.88;;;19.23;78.13
82006;BME280;71529;47.484;19.064;2023-08-06T06:19:33;98816.00;;;19.33;77.79
82006;BME280;71529;47.484;19.064;2023-08-06T06:22:01;98812.91;;;19.30;79.17
82006;BME280;71529;47.484;19.064;2023-08-06T06:24:29;98823.69;;;19.36;80.32
82006;BME280;71529;47.484;19.064;2023-08-06T06:26:57;98814.41;;;19.44;78.85
82006;BME280;71529;47.484;19.064;2023-08-06T06:29:25;98826.81;;;19.51;78.14
82006;BME280;71529;47.484;19.064;2023-08-06T06:31:54;98831.53;;;19.56;76.54
82006;BME280;71529;47.484;19.064;2023-08-06T06:34:22;98845.28;;;19.43;78.40
82006;BME280;71529;47.484;19.064;2023-08-06T06:36:50;98847.69;;;19.33;76.75
82006;BME280;71529;47.484;19.064;2023-08-06T06:39:18;98851.13;;;19.40;78.62
82006;BME280;71529;47.484;19.064;2023-08-06T06:41:46;98854.66;;;19.40;76.21
82006;BME280;71529;47.484;19.064;2023-08-06T06:44:15;98852.19;;;19.39;78.77
82006;BME280;71529;47.484;19.064;2023-08-06T06:46:43;98858.22;;;19.41;77.24
82006;BME280;71529;47.484;19.064;2023-08-06T06:49:12;98857.31;;;19.29;76.35
82006;BME280;71529;47.484;19.064;2023-08-06T06:51:40;98846.19;;;19.37;77.00
82006;BME280;71529;47.484;19.064;2023-08-06T06:54:08;98836.78;;;19.39;76.82
82006;BME280;71529;47.484;19.064;2023-08-06T06:56:36;98827.09;;;19.32;75.95
82006;BME280;71529;47.484;19.064;2023-08-06T06:59:04;98830.66;;;19.26;75.61
82006;BME280;71529;47.484;19.064;2023-08-06T07:01:33;98831.22;;;19.34;76.86
82006;BME280;71529;47.484;19.064;2023-08-06T07:04:01;98840.22;;;19.46;78.41
82006;BME280;71529;47.484;19.064;2023-08-06T07:06:32;98839.78;;;19.31;76.48
82006;BME280;71529;47.484;19.064;2023-08-06T07:09:00;98842.09;;;19.28;75.82
82006;BME280;71529;47.484;19.064;2023-08-06T07:11:29;98848.66;;;19.20;75.80
82006;BME280;71529;47.484;19.064;2023-08-06T07:13:57;98858.66;;;19.20;75.95
82006;BME280;71529;47.484;19.064;2023-08-06T07:16:26;98856.59;;;19.15;76.04
82006;BME280;71529;47.484;19.064;2023-08-06T07:18:54;98870.53;;;19.19;78.19
82006;BME280;71529;47.484;19.064;2023-08-06T07:21:22;98882.34;;;19.24;77.41
82006;BME280;71529;47.484;19.064;2023-08-06T07:23:52;98886.94;;;19.24;77.61
82006;BME280;71529;47.484;19.064;2023-08-06T07:26:20;98890.44;;;19.31;76.26
82006;BME280;71529;47.484;19.064;2023-08-06T07:28:48;98885.41;;;19.28;76.63
82006;BME280;71529;47.484;19.064;2023-08-06T07:31:16;98874.81;;;19.26;75.61
82006;BME280;71529;47.484;19.064;2023-08-06T07:33:44;98872.72;;;19.10;76.06
82006;BME280;71529;47.484;19.064;2023-08-06T07:36:13;98863.47;;;19.00;76.39
82006;BME280;71529;47.484;19.064;2023-08-06T07:38:43;98861.44;;;19.13;76.81
82006;BME280;71529;47.484;19.064;2023-08-06T07:41:12;98870.31;;;19.20;76.81
82006;BME280;71529;47.484;19.064;2023-08-06T07:43:40;98861.75;;;19.23;76.37
82006;BME280;71529;47.484;19.064;2023-08-06T07:46:09;98869.41;;;19.26;77.94
82006;BME280;71529;47.484;19.064;2023-08-06T07:48:38;98865.06;;;19.25;77.31
82006;BME280;71529;47.484;19.064;2023-08-06T07:51:06;98869.16;;;19.28;78.33
82006;BME280;71529;47.484;19.064;2023-08-06T07:53:35;98868.13;;;19.29;78.13
82006;BME280;71529;47.484;19.064;2023-08-06T07:56:03;98860.00;;;19.29;78.07
82006;BME280;71529;47.484;19.064;2023-08-06T07:58:32;98847.72;;;19.26;76.81
82006;BME280;71529;47.484;19.064;2023-08-06T08:01:00;98857.53;;;19.27;78.38
82006;BME280;71529;47.484;19.064;2023-08-06T08:03:31;98851.22;;;19.33;79.52
82006;BME280;71529;47.484;19.064;2023-08-06T08:05:59;98859.63;;;19.43;76.19
82006;BME280;71529;47.484;19.064;2023-08-06T08:08:27;98855.22;;;19.31;75.63
82006;BME280;71529;47.484;19.064;2023-08-06T08:10:56;98859.16;;;19.28;75.64
82006;BME280;71529;47.484;19.064;2023-08-06T08:13:25;98870.53;;;19.37;77.25
82006;BME280;71529;47.484;19.064;2023-08-06T08:15:58;98871.00;;;19.34;77.05
82006;BME280;71529;47.484;19.064;2023-08-06T08:18:26;98867.06;;;19.30;73.30
82006;BME280;71529;47.484;19.064;2023-08-06T08:20:54;98866.91;;;19.25;76.26
82006;BME280;71529;47.484;19.064;2023-08-06T08:23:22;98874.59;;;19.28;74.77
82006;BME280;71529;47.484;19.064;2023-08-06T08:25:51;98877.63;;;19.38;74.79
82006;BME280;71529;47.484;19.064;2023-08-06T08:28:19;98892.81;;;19.39;76.08
82006;BME280;71529;47.484;19.064;2023-08-06T08:30:47;98895.91;;;19.42;77.65
82006;BME280;71529;47.484;19.064;2023-08-06T08:33:16;98891.75;;;19.40;74.80
82006;BME280;71529;47.484;19.064;2023-08-06T08:35:45;98877.09;;;19.47;77.03
82006;BME280;71529;47.484;19.064;2023-08-06T08:38:13;98885.06;;;19.42;74.70
82006;BME280;71529;47.484;19.064;2023-08-06T08:40:46;98877.19;;;19.41;73.68
82006;BME280;71529;47.484;19.064;2023-08-06T08:43:15;98882.81;;;19.39;74.33
82006;BME280;71529;47.484;19.064;2023-08-06T08:45:45;98883.47;;;19.35;73.44
82006;BME280;71529;47.484;19.064;2023-08-06T08:48:19;98886.03;;;19.30;73.85
82006;BME280;71529;47.484;19.064;2023-08-06T08:50:48;98884.31;;;19.35;74.77
82006;BME280;71529;47.484;19.064;2023-08-06T08:53:17;98882.97;;;19.44;74.86
82006;BME280;71529;47.484;19.064;2023-08-06T08:55:48;98890.94;;;19.39;72.88
82006;BME280;71529;47.484;19.064;2023-08-06T08:58:16;98877.84;;;19.36;72.92
82006;BME280;71529;47.484;19.064;2023-08-06T09:00:46;98876.34;;;19.40;73.05
82006;BME280;71529;47.484;19.064;2023-08-06T09:03:16;98877.84;;;19.36;72.15
82006;BME280;71529;47.484;19.064;2023-08-06T09:05:53;98857.38;;;19.40;72.72
82006;BME280;71529;47.484;19.064;2023-08-06T09:08:27;98863.53;;;19.47;71.90
82006;BME280;71529;47.484;19.064;2023-08-06T09:10:59;98871.56;;;19.54;71.37
82006;BME280;71529;47.484;19.064;2023-08-06T09:13:29;98872.31;;;19.61;71.48
82006;BME280;71529;47.484;19.064;2023-08-06T09:15:57;98876.19;;;19.53;71.68
82006;BME280;71529;47.484;19.064;2023-08-06T09:18:26;98883.94;;;19.50;70.92
82006;BME280;71529;47.484;19.064;2023-08-06T09:20:57;98879.66;;;19.42;71.51
82006;BME280;71529;47.484;19.064;2023-08-06T09:23:29;98884.16;;;19.48;71.66
82006;BME280;71529;47.484;19.064;2023-08-06T09:25:58;98892.50;;;19.47;74.11
82006;BME280;71529;47.484;19.064;2023-08-06T09:28:36;98898.84;;;19.41;71.97
82006;BME280;71529;47.484;19.064;2023-08-06T09:31:04;98902.81;;;19.38;73.09
82006;BME280;71529;47.484;19.064;2023-08-06T09:33:32;98905.84;;;19.30;73.53
82006;BME280;71529;47.484;19.064;2023-08-06T09:36:08;98916.50;;;19.25;74.36
82006;BME280;71529;47.484;19.064;2023-08-06T09:38:38;98921.69;;;19.27;75.94
82006;BME280;71529;47.484;19.064;2023-08-06T09:41:07;98918.13;;;19.26;75.39
82006;BME280;71529;47.484;19.064;2023-08-06T09:43:42;98907.53;;;19.25;73.90
82006;BME280;71529;47.484;19.064;2023-08-06T09:46:11;98916.88;;;19.29;75.45
82006;BME280;71529;47.484;19.064;2023-08-06T09:48:41;98908.69;;;19.35;74.90
82006;BME280;71529;47.484;19.064;2023-08-06T09:51:13;98907.47;;;19.31;72.87
82006;BME280;71529;47.484;19.064;2023-08-06T09:53:42;98904.97;;;19.30;71.88
82006;BME280;71529;47.484;19.064;2023-08-06T09:56:10;98912.34;;;19.23;73.18
82006;BME280;71529;47.484;19.064;2023-08-06T09:58:39;98925.72;;;19.18;73.33
82006;BME280;71529;47.484;19.064;2023-08-06T10:01:08;98925.44;;;19.26;71.70
82006;BME280;71529;47.484;19.064;2023-08-06T10:03:36;98927.09;;;19.27;72.04
82006;BME280;71529;47.484;19.064;2023-08-06T10:06:04;98929.28;;;19.18;72.41
82006;BME280;71529;47.484;19.064;2023-08-06T10:08:37;98945.44;;;19.25;74.38
82006;BME280;71529;47.484;19.064;2023-08-06T10:11:06;98952.50;;;19.26;72.86
82006;BME280;71529;47.484;19.064;2023-08-06T10:13:35;98943.94;;;19.29;73.21
82006;BME280;71529;47.484;19.064;2023-08-06T10:16:04;98939.97;;;19.31;71.47
82006;BME280;71529;47.484;19.064;2023-08-06T10:18:33;98962.06;;;19.28;71.00
82006;BME280;71529;47.484;19.064;2023-08-06T10:21:07;98963.31;;;19.26;72.75
82006;BME280;71529;47.484;19.064;2023-08-06T10:23:40;98954.19;;;19.27;72.91
82006;BME280;71529;47.484;19.064;2023-08-06T10:26:08;98958.50;;;19.34;71.58
82006;BME280;71529;47.484;19.064;2023-08-06T10:28:38;98967.25;;;19.30;73.81
82006;BME280;71529;47.484;19.064;2023-08-06T10:31:07;98969.47;;;19.39;71.82
82006;BME280;71529;47.484;19.064;2023-08-06T10:33:42;98960.16;;;19.35;71.04
82006;BME280;71529;47.484;19.064;2023-08-06T10:36:12;98964.78;;;19.28;72.16
82006;BME280;71529;47.484;19.064;2023-08-06T10:38:48;98971.34;;;19.39;72.81
82006;BME280;71529;47.484;19.064;2023-08-06T10:41:23;98970.75;;;19.37;69.30
82006;BME280;71529;47.484;19.064;2023-08-06T10:43:51;98968.72;;;19.32;72.13
82006;BME280;71529;47.484;19.064;2023-08-06T10:46:26;98969.91;;;19.36;71.14
82006;BME280;71529;47.484;19.064;2023-08-06T10:48:55;98979.34;;;19.34;69.82
82006;BME280;71529;47.484;19.064;2023-08-06T10:51:23;98979.25;;;19.40;72.29
82006;BME280;71529;47.484;19.064;2023-08-06T10:53:53;98971.66;;;19.49;70.14
82006;BME280;71529;47.484;19.064;2023-08-06T10:56:22;98976.25;;;19.48;71.82
82006;BME280;71529;47.484;19.064;2023-08-06T10:58:54;98969.78;;;19.49;69.05
82006;BME280;71529;47.484;19.064;2023-08-06T11:01:22;98966.22;;;19.49;68.66
82006;BME280;71529;47.484;19.064;2023-08-06T11:03:51;98976.31;;;19.42;69.50
82006;BME280;71529;47.484;19.064;2023-08-06T11:06:21;98979.94;;;19.36;69.86
82006;BME280;71529;47.484;19.064;2023-08-06T11:08:51;98982.78;;;19.41;69.20
82006;BME280;71529;47.484;19.064;2023-08-06T11:11:22;98985.81;;;19.51;69.81
82006;BME280;71529;47.484;19.064;2023-08-06T11:13:51;98977.63;;;19.39;69.83
82006;BME280;71529;47.484;19.064;2023-08-06T11:16:22;98982.72;;;19.47;68.85
82006;BME280;71529;47.484;19.064;2023-08-06T11:18:51;98988.75;;;19.49;70.84
82006;BME280;71529;47.484;19.064;2023-08-06T11:21:21;98981.81;;;19.53;69.32
82006;BME280;71529;47.484;19.064;2023-08-06T11:23:51;98975.06;;;19.44;70.51
82006;BME280;71529;47.484;19.064;2023-08-06T11:26:19;98978.38;;;19.46;70.18
82006;BME280;71529;47.484;19.064;2023-08-06T11:28:49;98971.41;;;19.50;69.26
82006;BME280;71529;47.484;19.064;2023-08-06T11:31:20;98977.31;;;19.47;69.83
82006;BME280;71529;47.484;19.064;2023-08-06T11:33:49;98974.81;;;19.46;67.81
82006;BME280;71529;47.484;19.064;2023-08-06T11:36:28;98978.78;;;19.43;68.45
82006;BME280;71529;47.484;19.064;2023-08-06T11:38:57;98977.44;;;19.52;69.92
82006;BME280;71529;47.484;19.064;2023-08-06T11:41:25;98977.97;;;19.61;69.25
82006;BME280;71529;47.484;19.064;2023-08-06T11:43:57;98991.13;;;19.57;68.75
82006;BME280;71529;47.484;19.064;2023-08-06T11:46:25;98992.94;;;19.45;70.02
82006;BME280;71529;47.484;19.064;2023-08-06T11:48:54;98990.69;;;19.42;69.02
82006;BME280;71529;47.484;19.064;2023-08-06T11:51:23;98997.56;;;19.45;69.99
82006;BME280;71529;47.484;19.064;2023-08-06T11:53:54;99001.16;;;19.39;70.72
82006;BME280;71529;47.484;19.064;2023-08-06T11:56:24;99003.16;;;19.43;69.78
82006;BME280;71529;47.484;19.064;2023-08-06T11:58:52;98996.34;;;19.41;69.29
82006;BME280;71529;47.484;19.064;2023-08-06T12:01:22;99000.91;;;19.40;69.68
82006;BME280;71529;47.484;19.064;2023-08-06T12:03:50;98992.28;;;19.50;70.90
82006;BME280;71529;47.484;19.064;2023-08-06T12:06:18;98996.88;;;19.49;69.50
82006;BME280;71529;47.484;19.064;2023-08-06T12:08:46;99017.84;;;19.54;68.00
82006;BME280;71529;47.484;19.064;2023-08-06T12:11:15;99014.47;;;19.58;68.30
82006;BME280;71529;47.484;19.064;2023-08-06T12:13:43;99008.69;;;19.55;69.27
82006;BME280;71529;47.484;19.064;2023-08-06T12:16:11;99008.00;;;19.59;67.61
82006;BME280;71529;47.484;19.064;2023-08-06T12:18:41;99012.75;;;19.64;68.84
82006;BME280;71529;47.484;19.064;2023-08-06T12:21:09;99029.63;;;19.66;68.43
82006;BME280;71529;47.484;19.064;2023-08-06T12:23:37;99022.75;;;19.63;68.27
82006;BME280;71529;47.484;19.064;2023-08-06T12:26:06;99019.31;;;19.74;68.54
82006;BME280;71529;47.484;19.064;2023-08-06T12:28:34;99029.31;;;19.74;68.09
82006;BME280;71529;47.484;19.064;2023-08-06T12:31:02;99035.03;;;19.66;66.45
82006;BME280;71529;47.484;19.064;2023-08-06T12:33:30;99037.94;;;19.64;67.98
82006;BME280;71529;47.484;19.064;2023-08-06T12:35:59;99031.97;;;19.62;68.52
82006;BME280;71529;47.484;19.064;2023-08-06T12:38:27;99031.34;;;19.60;68.88
82006;BME280;71529;47.484;19.064;2023-08-06T12:40:59;99047.66;;;19.54;68.43
82006;BME280;71529;47.484;19.064;2023-08-06T12:43:27;99035.63;;;19.50;70.33
82006;BME280;71529;47.484;19.064;2023-08-06T12:45:55;99038.94;;;19.52;68.55
82006;BME280;71529;47.484;19.064;2023-08-06T12:48:24;99055.34;;;19.57;67.98
82006;BME280;71529;47.484;19.064;2023-08-06T12:50:52;99034.88;;;19.61;68.13
82006;BME280;71529;47.484;19.064;2023-08-06T12:53:21;99042.56;;;19.64;69.04
82006;BME280;71529;47.484;19.064;2023-08-06T12:55:50;99039.47;;;19.60;66.75
82006;BME280;71529;47.484;19.064;2023-08-06T12:58:18;99038.13;;;19.69;66.99
82006;BME280;71529;47.484;19.064;2023-08-06T13:00:46;99043.16;;;19.66;66.70